sensor_id;sensor_type;location;lat;lon;timestamp;pressure;altitude;pressure_sealevel;temperature;humidity
53719;BME280;39616;48.872;9.390;2023-03-03T00:00:09;98556.00;;;-0.14;100.00
53719;BME280;39616;48.872;9.390;2023-03-03T00:02:39;98561.09;;;-0.12;100.00
53719;BME280;39616;48.872;9.390;2023-03-03T00:05:10;98562.94;;;-0.13;100.00
53719;BME280;39616;48.872;9.390;2023-03-03T00:07:44;98562.34;;;-0.15;100.00
53719;BME280;39616;48.872;9.390;2023-03-03T00:10:15;98557.66;;;-0.19;100.00
53719;BME280;39616;48.872;9.390;2023-03-03T00:12:48;98565.09;;;-0.21;100.00
53719;BME280;39616;48.872;9.390;2023-03-03T00:15:20;98554.06;;;-0.25;100.00
53719;BME280;39616;48.872;9.390;2023-03-03T00:17:52;98555.06;;;-0.26;100.00
53719;BME280;39616;48.872;9.390;2023-03-03T00:20:37;98560.78;;;-0.22;100.00
53719;BME280;39616;48.872;9.390;2023-03-03T00:25:52;98555.31;;;-0.09;100.00
53719;BME280;39616;48.872;9.390;2023-03-03T00:28:24;98558.28;;;-0.17;100.00
53719;BME280;39616;48.872;9.390;2023-03-03T00:30:58;98562.44;;;-0.21;100.00
53719;BME280;39616;48.872;9.390;2023-03-03T00:33:31;98560.34;;;-0.19;100.00
53719;BME280;39616;48.872;9.390;2023-03-03T00:38:44;98564.28;;;-0.22;100.00
53719;BME280;39616;48.872;9.390;2023-03-03T00:41:21;98566.94;;;-0.22;100.00
53719;BME280;39616;48.872;9.390;2023-03-03T00:43:53;98561.25;;;-0.26;100.00
53719;BME280;39616;48.872;9.390;2023-03-03T00:46:23;98565.97;;;-0.28;100.00
53719;BME280;39616;48.872;9.390;2023-03-03T00:48:53;98565.16;;;-0.28;100.00
53719;BME280;39616;48.872;9.390;2023-03-03T00:51:29;98564.09;;;-0.27;100.00
53719;BME280;39616;48.872;9.390;2023-03-03T00:54:00;98557.66;;;-0.38;100.00
53719;BME280;39616;48.872;9.390;2023-03-03T00:56:30;98559.84;;;-0.53;100.00
53719;BME280;39616;48.872;9.390;2023-03-03T00:59:00;98562.94;;;-0.56;100.00
53719;BME280;39616;48.872;9.390;2023-03-03T01:01:31;98563.00;;;-0.63;100.00
53719;BME280;39616;48.872;9.390;2023-03-03T01:04:01;98566.16;;;-0.73;100.00
53719;BME280;39616;48.872;9.390;2023-03-03T01:06:31;98557.84;;;-0.83;100.00
53719;BME280;39616;48.872;9.390;2023-03-03T01:09:01;98558.00;;;-0.78;100.00
53719;BME280;39616;48.872;9.390;2023-03-03T01:11:32;98550.91;;;-0.84;100.00
53719;BME280;39616;48.872;9.390;2023-03-03T01:14:02;98553.56;;;-0.84;100.00
53719;BME280;39616;48.872;9.390;2023-03-03T01:16:33;98558.06;;;-0.84;100.00
53719;BME280;39616;48.872;9.390;2023-03-03T01:19:03;98552.13;;;-0.86;100.00
53719;BME280;39616;48.872;9.390;2023-03-03T01:21:33;98552.94;;;-0.86;100.00
53719;BME280;39616;48.872;9.390;2023-03-03T01:24:04;98554.22;;;-0.88;100.00
53719;BME280;39616;48.872;9.390;2023-03-03T01:26:34;98559.97;;;-0.91;100.00
53719;BME280;39616;48.872;9.390;2023-03-03T01:29:05;98562.63;;;-0.91;100.00
53719;BME280;39616;48.872;9.390;2023-03-03T01:31:35;98559.22;;;-0.99;100.00
53719;BME280;39616;48.872;9.390;2023-03-03T01:34:06;98557.78;;;-1.01;100.00
53719;BME280;39616;48.872;9.390;2023-03-03T01:36:36;98557.78;;;-1.01;100.00
53719;BME280;39616;48.872;9.390;2023-03-03T01:39:06;98562.28;;;-1.02;100.00
53719;BME280;39616;48.872;9.390;2023-03-03T01:41:37;98557.41;;;-1.05;100.00
53719;BME280;39616;48.872;9.390;2023-03-03T01:44:13;98560.72;;;-1.09;100.00
53719;BME280;39616;48.872;9.390;2023-03-03T01:46:50;98562.13;;;-1.07;100.00
53719;BME280;39616;48.872;9.390;2023-03-03T01:49:27;98562.59;;;-1.16;100.00
53719;BME280;39616;48.872;9.390;2023-03-03T01:52:02;98553.19;;;-1.19;100.00
53719;BME280;39616;48.872;9.390;2023-03-03T01:54:39;98554.00;;;-1.18;100.00
53719;BME280;39616;48.872;9.390;2023-03-03T01:57:19;98540.66;;;-1.12;100.00
53719;BME280;39616;48.872;9.390;2023-03-03T01:59:51;98541.09;;;-1.15;100.00
53719;BME280;39616;48.872;9.390;2023-03-03T02:02:24;98535.19;;;-1.17;100.00
53719;BME280;39616;48.872;9.390;2023-03-03T02:04:55;98534.81;;;-1.27;100.00
53719;BME280;39616;48.872;9.390;2023-03-03T02:07:27;98538.34;;;-1.33;100.00
53719;BME280;39616;48.872;9.390;2023-03-03T02:12:50;98533.81;;;-1.33;100.00
53719;BME280;39616;48.872;9.390;2023-03-03T02:15:23;98525.84;;;-1.33;100.00
53719;BME280;39616;48.872;9.390;2023-03-03T02:18:20;98529.13;;;-1.31;100.00
53719;BME280;39616;48.872;9.390;2023-03-03T02:21:06;98538.13;;;-1.32;100.00
53719;BME280;39616;48.872;9.390;2023-03-03T02:23:59;98535.69;;;-1.33;100.00
53719;BME280;39616;48.872;9.390;2023-03-03T02:26:35;98531.78;;;-1.31;100.00
53719;BME280;39616;48.872;9.390;2023-03-03T02:29:07;98543.03;;;-1.29;100.00
53719;BME280;39616;48.872;9.390;2023-03-03T02:31:37;98533.41;;;-1.30;100.00
53719;BME280;39616;48.872;9.390;2023-03-03T02:34:07;98526.88;;;-1.34;100.00
53719;BME280;39616;48.872;9.390;2023-03-03T02:36:38;98522.78;;;-1.36;100.00
53719;BME280;39616;48.872;9.390;2023-03-03T02:44:43;98537.38;;;-1.39;100.00
53719;BME280;39616;48.872;9.390;2023-03-03T02:47:13;98536.31;;;-1.38;100.00
53719;BME280;39616;48.872;9.390;2023-03-03T02:49:44;98534.91;;;-1.40;100.00
53719;BME280;39616;48.872;9.390;2023-03-03T02:52:14;98542.69;;;-1.39;100.00
53719;BME280;39616;48.872;9.390;2023-03-03T02:54:47;98542.25;;;-1.36;100.00
53719;BME280;39616;48.872;9.390;2023-03-03T02:57:17;98542.47;;;-1.37;100.00
53719;BME280;39616;48.872;9.390;2023-03-03T02:59:47;98541.47;;;-1.43;100.00
53719;BME280;39616;48.872;9.390;2023-03-03T03:02:18;98552.97;;;-1.49;100.00
53719;BME280;39616;48.872;9.390;2023-03-03T03:04:48;98550.72;;;-1.52;100.00
53719;BME280;39616;48.872;9.390;2023-03-03T03:07:18;98546.91;;;-1.63;100.00
53719;BME280;39616;48.872;9.390;2023-03-03T03:09:49;98547.16;;;-1.71;100.00
53719;BME280;39616;48.872;9.390;2023-03-03T03:12:19;98543.06;;;-1.74;100.00
53719;BME280;39616;48.872;9.390;2023-03-03T03:14:50;98547.56;;;-1.74;100.00
53719;BME280;39616;48.872;9.390;2023-03-03T03:17:20;98544.72;;;-1.73;100.00
53719;BME280;39616;48.872;9.390;2023-03-03T03:19:50;98548.56;;;-1.68;100.00
53719;BME280;39616;48.872;9.390;2023-03-03T03:22:21;98541.66;;;-1.76;100.00
53719;BME280;39616;48.872;9.390;2023-03-03T03:24:51;98548.19;;;-1.79;100.00
53719;BME280;39616;48.872;9.390;2023-03-03T03:27:22;98555.56;;;-1.81;100.00
53719;BME280;39616;48.872;9.390;2023-03-03T03:29:52;98554.13;;;-1.77;100.00
53719;BME280;39616;48.872;9.390;2023-03-03T03:32:22;98553.88;;;-1.68;100.00
53719;BME280;39616;48.872;9.390;2023-03-03T03:34:53;98548.72;;;-1.57;100.00
53719;BME280;39616;48.872;9.390;2023-03-03T03:37:23;98549.69;;;-1.51;100.00
53719;BME280;39616;48.872;9.390;2023-03-03T03:39:53;98548.84;;;-1.45;100.00
53719;BME280;39616;48.872;9.390;2023-03-03T03:42:24;98548.59;;;-1.37;100.00
53719;BME280;39616;48.872;9.390;2023-03-03T03:44:54;98554.69;;;-1.30;100.00
53719;BME280;39616;48.872;9.390;2023-03-03T03:47:24;98547.28;;;-1.21;100.00
53719;BME280;39616;48.872;9.390;2023-03-03T03:49:54;98541.72;;;-1.19;100.00
53719;BME280;39616;48.872;9.390;2023-03-03T03:52:25;98540.91;;;-1.20;100.00
53719;BME280;39616;48.872;9.390;2023-03-03T03:54:55;98545.00;;;-1.17;100.00
53719;BME280;39616;48.872;9.390;2023-03-03T03:57:26;98534.75;;;-1.14;100.00
53719;BME280;39616;48.872;9.390;2023-03-03T03:59:56;98550.06;;;-1.09;100.00
53719;BME280;39616;48.872;9.390;2023-03-03T04:02:26;98547.56;;;-1.04;100.00
53719;BME280;39616;48.872;9.390;2023-03-03T04:04:57;98548.22;;;-1.09;100.00
53719;BME280;39616;48.872;9.390;2023-03-03T04:07:27;98548.22;;;-1.09;100.00
53719;BME280;39616;48.872;9.390;2023-03-03T04:09:57;98544.09;;;-1.05;100.00
53719;BME280;39616;48.872;9.390;2023-03-03T04:12:28;98542.19;;;-0.98;100.00
53719;BME280;39616;48.872;9.390;2023-03-03T04:14:58;98542.03;;;-1.03;100.00
53719;BME280;39616;48.872;9.390;2023-03-03T04:17:29;98550.59;;;-1.01;100.00
53719;BME280;39616;48.872;9.390;2023-03-03T04:19:59;98545.47;;;-0.95;100.00
53719;BME280;39616;48.872;9.390;2023-03-03T04:22:29;98553.59;;;-0.90;100.00
53719;BME280;39616;48.872;9.390;2023-03-03T04:25:04;98559.91;;;-0.85;100.00
53719;BME280;39616;48.872;9.390;2023-03-03T04:27:35;98551.75;;;-0.90;100.00
53719;BME280;39616;48.872;9.390;2023-03-03T04:30:06;98551.31;;;-0.87;100.00
53719;BME280;39616;48.872;9.390;2023-03-03T04:32:37;98550.91;;;-0.84;100.00
53719;BME280;39616;48.872;9.390;2023-03-03T04:35:08;98556.75;;;-0.75;100.00
53719;BME280;39616;48.872;9.390;2023-03-03T04:37:38;98558.19;;;-0.73;100.00
53719;BME280;39616;48.872;9.390;2023-03-03T04:40:09;98563.47;;;-0.66;100.00
53719;BME280;39616;48.872;9.390;2023-03-03T04:42:39;98561.75;;;-0.60;100.00
53719;BME280;39616;48.872;9.390;2023-03-03T04:45:10;98569.09;;;-0.56;100.00
53719;BME280;39616;48.872;9.390;2023-03-03T04:47:40;98571.94;;;-0.51;100.00
53719;BME280;39616;48.872;9.390;2023-03-03T04:50:11;98576.22;;;-0.50;100.00
53719;BME280;39616;48.872;9.390;2023-03-03T04:52:41;98579.88;;;-0.44;100.00
53719;BME280;39616;48.872;9.390;2023-03-03T04:55:12;98580.38;;;-0.35;100.00
53719;BME280;39616;48.872;9.390;2023-03-03T04:57:43;98581.34;;;-0.30;100.00
53719;BME280;39616;48.872;9.390;2023-03-03T05:00:13;98581.91;;;-0.21;100.00
53719;BME280;39616;48.872;9.390;2023-03-03T05:02:46;98571.97;;;-0.14;100.00
53719;BME280;39616;48.872;9.390;2023-03-03T05:05:16;98576.50;;;-0.14;100.00
53719;BME280;39616;48.872;9.390;2023-03-03T05:07:47;98574.28;;;-0.17;100.00
53719;BME280;39616;48.872;9.390;2023-03-03T05:10:17;98578.94;;;-0.13;100.00
53719;BME280;39616;48.872;9.390;2023-03-03T05:12:47;98575.41;;;-0.07;100.00
53719;BME280;39616;48.872;9.390;2023-03-03T05:15:18;98570.88;;;-0.06;100.00
53719;BME280;39616;48.872;9.390;2023-03-03T05:17:48;98567.59;;;-0.08;100.00
53719;BME280;39616;48.872;9.390;2023-03-03T05:20:18;98566.66;;;-0.14;100.00
53719;BME280;39616;48.872;9.390;2023-03-03T05:22:49;98578.31;;;-0.15;100.00
53719;BME280;39616;48.872;9.390;2023-03-03T05:25:20;98586.69;;;-0.11;100.00
53719;BME280;39616;48.872;9.390;2023-03-03T05:27:50;98585.25;;;-0.07;100.00
53719;BME280;39616;48.872;9.390;2023-03-03T05:30:20;98586.44;;;-0.03;100.00
53719;BME280;39616;48.872;9.390;2023-03-03T05:32:50;98583.91;;;0.02;100.00
53719;BME280;39616;48.872;9.390;2023-03-03T05:35:21;98586.94;;;0.06;100.00
53719;BME280;39616;48.872;9.390;2023-03-03T05:37:53;98589.75;;;0.11;100.00
53719;BME280;39616;48.872;9.390;2023-03-03T05:40:24;98589.59;;;0.06;100.00
53719;BME280;39616;48.872;9.390;2023-03-03T05:42:54;98592.72;;;0.03;100.00
53719;BME280;39616;48.872;9.390;2023-03-03T05:45:24;98596.06;;;-0.02;100.00
53719;BME280;39616;48.872;9.390;2023-03-03T05:47:55;98600.78;;;-0.04;100.00
53719;BME280;39616;48.872;9.390;2023-03-03T05:50:25;98601.69;;;-0.10;100.00
53719;BME280;39616;48.872;9.390;2023-03-03T05:52:56;98615.28;;;-0.18;100.00
53719;BME280;39616;48.872;9.390;2023-03-03T05:55:26;98609.50;;;-0.15;100.00
53719;BME280;39616;48.872;9.390;2023-03-03T05:57:56;98605.06;;;-0.21;100.00
53719;BME280;39616;48.872;9.390;2023-03-03T06:00:27;98609.34;;;-0.20;100.00
53719;BME280;39616;48.872;9.390;2023-03-03T06:02:57;98600.25;;;-0.13;100.00
53719;BME280;39616;48.872;9.390;2023-03-03T06:05:27;98603.72;;;-0.12;100.00
53719;BME280;39616;48.872;9.390;2023-03-03T06:07:58;98605.72;;;-0.08;100.00
53719;BME280;39616;48.872;9.390;2023-03-03T06:10:29;98613.91;;;-0.03;100.00
53719;BME280;39616;48.872;9.390;2023-03-03T06:12:59;98612.34;;;0.08;100.00
53719;BME280;39616;48.872;9.390;2023-03-03T06:15:29;98611.91;;;0.11;100.00
53719;BME280;39616;48.872;9.390;2023-03-03T06:18:00;98618.66;;;0.14;100.00
53719;BME280;39616;48.872;9.390;2023-03-03T06:20:30;98625.25;;;0.11;100.00
53719;BME280;39616;48.872;9.390;2023-03-03T06:23:02;98622.41;;;0.06;100.00
53719;BME280;39616;48.872;9.390;2023-03-03T06:25:32;98623.47;;;0.05;100.00
53719;BME280;39616;48.872;9.390;2023-03-03T06:28:04;98622.22;;;0.08;100.00
53719;BME280;39616;48.872;9.390;2023-03-03T06:30:35;98627.44;;;0.14;100.00
53719;BME280;39616;48.872;9.390;2023-03-03T06:33:05;98632.59;;;0.16;100.00
53719;BME280;39616;48.872;9.390;2023-03-03T06:35:36;98631.47;;;0.23;100.00
53719;BME280;39616;48.872;9.390;2023-03-03T06:38:06;98638.06;;;0.21;100.00
53719;BME280;39616;48.872;9.390;2023-03-03T06:40:37;98640.91;;;0.26;100.00
53719;BME280;39616;48.872;9.390;2023-03-03T06:43:07;98645.31;;;0.32;100.00
53719;BME280;39616;48.872;9.390;2023-03-03T06:45:38;98647.09;;;0.20;100.00
53719;BME280;39616;48.872;9.390;2023-03-03T06:48:09;98643.19;;;0.22;100.00
53719;BME280;39616;48.872;9.390;2023-03-03T06:50:39;98653.00;;;0.22;100.00
53719;BME280;39616;48.872;9.390;2023-03-03T06:53:14;98648.06;;;0.26;100.00
53719;BME280;39616;48.872;9.390;2023-03-03T06:55:45;98653.38;;;0.26;100.00
53719;BME280;39616;48.872;9.390;2023-03-03T06:58:17;98658.97;;;0.24;100.00
53719;BME280;39616;48.872;9.390;2023-03-03T07:00:55;98661.94;;;0.34;100.00
53719;BME280;39616;48.872;9.390;2023-03-03T07:03:35;98663.50;;;0.42;100.00
53719;BME280;39616;48.872;9.390;2023-03-03T07:06:21;98667.78;;;0.43;100.00
53719;BME280;39616;48.872;9.390;2023-03-03T07:08:53;98658.66;;;0.51;100.00
53719;BME280;39616;48.872;9.390;2023-03-03T07:11:24;98669.34;;;0.51;100.00
53719;BME280;39616;48.872;9.390;2023-03-03T07:13:54;98671.63;;;0.47;100.00
53719;BME280;39616;48.872;9.390;2023-03-03T07:16:26;98665.91;;;0.62;100.00
53719;BME280;39616;48.872;9.390;2023-03-03T07:18:59;98672.06;;;0.81;100.00
53719;BME280;39616;48.872;9.390;2023-03-03T07:21:35;98664.94;;;0.93;100.00
53719;BME280;39616;48.872;9.390;2023-03-03T07:24:24;98669.59;;;0.98;100.00
53719;BME280;39616;48.872;9.390;2023-03-03T07:26:59;98678.31;;;1.05;98.69
53719;BME280;39616;48.872;9.390;2023-03-03T07:29:35;98671.56;;;1.02;100.00
53719;BME280;39616;48.872;9.390;2023-03-03T07:32:23;98674.06;;;1.15;99.63
53719;BME280;39616;48.872;9.390;2023-03-03T07:34:55;98669.41;;;1.11;97.26
53719;BME280;39616;48.872;9.390;2023-03-03T07:37:33;98674.75;;;1.11;97.06
53719;BME280;39616;48.872;9.390;2023-03-03T07:40:27;98671.16;;;1.17;97.01
53719;BME280;39616;48.872;9.390;2023-03-03T07:43:12;98674.38;;;1.37;96.56
53719;BME280;39616;48.872;9.390;2023-03-03T07:45:46;98672.16;;;1.34;95.54
53719;BME280;39616;48.872;9.390;2023-03-03T07:48:40;98681.06;;;1.28;96.14
53719;BME280;39616;48.872;9.390;2023-03-03T07:51:22;98676.13;;;1.43;96.02
53719;BME280;39616;48.872;9.390;2023-03-03T07:54:34;98680.44;;;1.44;95.96
53719;BME280;39616;48.872;9.390;2023-03-03T07:59:59;98694.63;;;1.57;95.62
53719;BME280;39616;48.872;9.390;2023-03-03T08:02:43;98694.56;;;1.75;96.06
53719;BME280;39616;48.872;9.390;2023-03-03T08:08:27;98688.22;;;2.00;94.38
53719;BME280;39616;48.872;9.390;2023-03-03T08:11:01;98689.25;;;2.22;93.51
53719;BME280;39616;48.872;9.390;2023-03-03T08:13:40;98690.75;;;2.41;90.86
53719;BME280;39616;48.872;9.390;2023-03-03T08:18:44;98691.84;;;2.81;89.00
53719;BME280;39616;48.872;9.390;2023-03-03T08:21:17;98686.22;;;3.23;85.90
53719;BME280;39616;48.872;9.390;2023-03-03T08:23:48;98686.00;;;3.41;83.48
53719;BME280;39616;48.872;9.390;2023-03-03T08:26:22;98692.72;;;3.27;83.26
53719;BME280;39616;48.872;9.390;2023-03-03T08:28:53;98692.63;;;3.22;83.56
53719;BME280;39616;48.872;9.390;2023-03-03T08:31:24;98687.56;;;3.08;85.03
53719;BME280;39616;48.872;9.390;2023-03-03T08:33:56;98684.69;;;3.89;82.68
53719;BME280;39616;48.872;9.390;2023-03-03T08:36:26;98691.09;;;3.71;81.72
53719;BME280;39616;48.872;9.390;2023-03-03T08:38:56;98686.25;;;4.02;80.21
53719;BME280;39616;48.872;9.390;2023-03-03T08:41:27;98682.88;;;4.28;78.13
53719;BME280;39616;48.872;9.390;2023-03-03T08:43:57;98690.75;;;4.35;79.06
53719;BME280;39616;48.872;9.390;2023-03-03T08:46:27;98692.22;;;4.43;77.46
53719;BME280;39616;48.872;9.390;2023-03-03T08:48:58;98694.09;;;4.08;77.84
53719;BME280;39616;48.872;9.390;2023-03-03T08:51:28;98695.31;;;4.18;78.75
53719;BME280;39616;48.872;9.390;2023-03-03T08:53:59;98700.06;;;4.10;77.77
53719;BME280;39616;48.872;9.390;2023-03-03T08:56:29;98706.41;;;3.87;79.08
53719;BME280;39616;48.872;9.390;2023-03-03T08:58:59;98712.63;;;3.59;80.87
53719;BME280;39616;48.872;9.390;2023-03-03T09:01:30;98714.63;;;3.52;81.38
53719;BME280;39616;48.872;9.390;2023-03-03T09:04:01;98710.63;;;3.38;82.32
53719;BME280;39616;48.872;9.390;2023-03-03T09:06:31;98715.69;;;3.23;83.42
53719;BME280;39616;48.872;9.390;2023-03-03T09:09:02;98711.34;;;3.33;83.56
53719;BME280;39616;48.872;9.390;2023-03-03T09:11:33;98722.50;;;3.13;84.03
53719;BME280;39616;48.872;9.390;2023-03-03T09:14:15;98716.31;;;3.42;84.37
53719;BME280;39616;48.872;9.390;2023-03-03T09:16:51;98723.81;;;3.56;82.07
53719;BME280;39616;48.872;9.390;2023-03-03T09:19:26;98721.59;;;3.82;81.26
53719;BME280;39616;48.872;9.390;2023-03-03T09:24:46;98721.69;;;4.21;79.69
53719;BME280;39616;48.872;9.390;2023-03-03T09:27:31;98729.66;;;4.32;78.71
53719;BME280;39616;48.872;9.390;2023-03-03T09:32:55;98730.28;;;4.78;77.84
53719;BME280;39616;48.872;9.390;2023-03-03T09:35:33;98733.84;;;4.84;77.12
53719;BME280;39616;48.872;9.390;2023-03-03T09:38:34;98728.28;;;4.69;77.52
53719;BME280;39616;48.872;9.390;2023-03-03T09:49:32;98728.66;;;4.99;76.12
53719;BME280;39616;48.872;9.390;2023-03-03T09:57:59;98733.38;;;4.87;77.27
53719;BME280;39616;48.872;9.390;2023-03-03T10:00:37;98727.31;;;5.73;74.95
53719;BME280;39616;48.872;9.390;2023-03-03T10:06:18;98720.22;;;5.62;73.48
53719;BME280;39616;48.872;9.390;2023-03-03T10:08:54;98724.22;;;6.18;71.80
53719;BME280;39616;48.872;9.390;2023-03-03T10:11:43;98723.47;;;7.28;68.26
53719;BME280;39616;48.872;9.390;2023-03-03T10:14:32;98716.78;;;7.41;65.58
53719;BME280;39616;48.872;9.390;2023-03-03T10:22:33;98715.75;;;7.98;61.69
53719;BME280;39616;48.872;9.390;2023-03-03T10:25:11;98711.44;;;8.22;62.38
53719;BME280;39616;48.872;9.390;2023-03-03T10:33:26;98713.53;;;7.34;64.17
53719;BME280;39616;48.872;9.390;2023-03-03T10:36:08;98714.41;;;7.75;64.08
53719;BME280;39616;48.872;9.390;2023-03-03T10:38:51;98714.63;;;7.58;63.64
53719;BME280;39616;48.872;9.390;2023-03-03T10:41:38;98719.78;;;6.82;65.53
53719;BME280;39616;48.872;9.390;2023-03-03T10:44:40;98715.66;;;6.69;65.51
53719;BME280;39616;48.872;9.390;2023-03-03T10:50:20;98720.28;;;6.73;67.52
53719;BME280;39616;48.872;9.390;2023-03-03T11:01:52;98715.28;;;7.02;63.62
53719;BME280;39616;48.872;9.390;2023-03-03T11:04:57;98722.56;;;6.97;64.58
53719;BME280;39616;48.872;9.390;2023-03-03T11:07:38;98722.22;;;6.83;64.88
53719;BME280;39616;48.872;9.390;2023-03-03T11:12:59;98722.06;;;6.58;66.61
53719;BME280;39616;48.872;9.390;2023-03-03T11:16:05;98725.28;;;6.54;65.53
53719;BME280;39616;48.872;9.390;2023-03-03T11:21:46;98727.38;;;6.05;67.30
53719;BME280;39616;48.872;9.390;2023-03-03T11:24:24;98735.06;;;6.28;67.19
53719;BME280;39616;48.872;9.390;2023-03-03T11:29:51;98735.94;;;6.34;65.83
53719;BME280;39616;48.872;9.390;2023-03-03T11:37:54;98717.63;;;6.84;65.90
53719;BME280;39616;48.872;9.390;2023-03-03T11:40:37;98724.78;;;6.63;64.57
53719;BME280;39616;48.872;9.390;2023-03-03T11:45:55;98714.31;;;7.29;64.54
53719;BME280;39616;48.872;9.390;2023-03-03T11:48:54;98709.38;;;7.00;63.97
53719;BME280;39616;48.872;9.390;2023-03-03T11:51:46;98711.16;;;6.80;63.76
53719;BME280;39616;48.872;9.390;2023-03-03T11:56:55;98697.78;;;7.10;64.11
53719;BME280;39616;48.872;9.390;2023-03-03T12:02:38;98686.50;;;7.23;63.84
53719;BME280;39616;48.872;9.390;2023-03-03T12:05:37;98686.00;;;7.42;63.07
53719;BME280;39616;48.872;9.390;2023-03-03T12:08:59;98679.78;;;7.36;62.18
53719;BME280;39616;48.872;9.390;2023-03-03T12:20:02;98669.84;;;8.23;59.15
53719;BME280;39616;48.872;9.390;2023-03-03T12:22:46;98667.91;;;8.50;59.79
53719;BME280;39616;48.872;9.390;2023-03-03T12:25:26;98669.00;;;8.49;58.30
53719;BME280;39616;48.872;9.390;2023-03-03T12:28:05;98674.69;;;8.16;58.92
53719;BME280;39616;48.872;9.390;2023-03-03T12:36:36;98666.56;;;8.52;57.43
53719;BME280;39616;48.872;9.390;2023-03-03T12:42:48;98668.13;;;8.74;56.39
53719;BME280;39616;48.872;9.390;2023-03-03T12:45:55;98657.00;;;9.35;57.68
53719;BME280;39616;48.872;9.390;2023-03-03T12:48:43;98663.63;;;8.33;57.04
53719;BME280;39616;48.872;9.390;2023-03-03T12:56:52;98654.88;;;9.32;55.02
53719;BME280;39616;48.872;9.390;2023-03-03T13:02:43;98656.84;;;9.16;57.42
53719;BME280;39616;48.872;9.390;2023-03-03T13:05:26;98653.81;;;9.67;56.01
53719;BME280;39616;48.872;9.390;2023-03-03T13:08:20;98646.53;;;9.97;54.95
53719;BME280;39616;48.872;9.390;2023-03-03T13:11:26;98650.53;;;10.04;53.39
53719;BME280;39616;48.872;9.390;2023-03-03T13:19:36;98655.91;;;8.91;55.70
53719;BME280;39616;48.872;9.390;2023-03-03T13:22:31;98655.72;;;8.67;55.67
53719;BME280;39616;48.872;9.390;2023-03-03T13:25:33;98642.81;;;9.14;54.86
53719;BME280;39616;48.872;9.390;2023-03-03T13:28:12;98646.31;;;9.14;55.25
53719;BME280;39616;48.872;9.390;2023-03-03T13:30:49;98641.84;;;9.39;55.68
53719;BME280;39616;48.872;9.390;2023-03-03T13:33:34;98644.13;;;9.22;55.05
53719;BME280;39616;48.872;9.390;2023-03-03T13:36:09;98645.13;;;9.31;54.38
53719;BME280;39616;48.872;9.390;2023-03-03T13:38:45;98638.47;;;9.13;54.71
53719;BME280;39616;48.872;9.390;2023-03-03T13:41:43;98643.47;;;8.85;54.33
53719;BME280;39616;48.872;9.390;2023-03-03T13:44:21;98637.09;;;9.21;54.46
53719;BME280;39616;48.872;9.390;2023-03-03T13:47:17;98629.41;;;8.88;54.35
53719;BME280;39616;48.872;9.390;2023-03-03T13:52:57;98622.34;;;8.92;54.22
53719;BME280;39616;48.872;9.390;2023-03-03T13:55:43;98619.50;;;9.18;53.68
53719;BME280;39616;48.872;9.390;2023-03-03T13:58:23;98620.91;;;9.05;54.09
53719;BME280;39616;48.872;9.390;2023-03-03T14:01:13;98626.75;;;8.78;54.16
53719;BME280;39616;48.872;9.390;2023-03-03T14:06:40;98620.44;;;8.93;54.46
53719;BME280;39616;48.872;9.390;2023-03-03T14:12:39;98607.25;;;9.31;54.81
53719;BME280;39616;48.872;9.390;2023-03-03T14:15:29;98608.34;;;9.30;54.34
53719;BME280;39616;48.872;9.390;2023-03-03T14:18:21;98607.47;;;8.95;54.33
53719;BME280;39616;48.872;9.390;2023-03-03T14:20:55;98607.13;;;9.07;55.42
53719;BME280;39616;48.872;9.390;2023-03-03T14:23:36;98608.28;;;8.95;54.54
53719;BME280;39616;48.872;9.390;2023-03-03T14:26:12;98609.94;;;8.86;55.47
53719;BME280;39616;48.872;9.390;2023-03-03T14:28:45;98607.16;;;9.02;54.55
53719;BME280;39616;48.872;9.390;2023-03-03T14:31:21;98604.47;;;8.97;54.59
53719;BME280;39616;48.872;9.390;2023-03-03T14:34:25;98607.47;;;8.95;54.46
53719;BME280;39616;48.872;9.390;2023-03-03T14:37:24;98605.03;;;8.93;54.98
53719;BME280;39616;48.872;9.390;2023-03-03T14:42:55;98602.56;;;8.97;55.45
53719;BME280;39616;48.872;9.390;2023-03-03T14:45:34;98602.41;;;8.78;55.19
53719;BME280;39616;48.872;9.390;2023-03-03T14:48:22;98598.59;;;8.84;55.20
53719;BME280;39616;48.872;9.390;2023-03-03T14:50:56;98597.59;;;8.70;55.48
53719;BME280;39616;48.872;9.390;2023-03-03T14:53:41;98603.81;;;8.65;56.12
53719;BME280;39616;48.872;9.390;2023-03-03T14:56:20;98609.97;;;8.76;56.92
53719;BME280;39616;48.872;9.390;2023-03-03T14:58:53;98598.69;;;8.69;56.00
53719;BME280;39616;48.872;9.390;2023-03-03T15:01:32;98600.00;;;8.77;55.74
53719;BME280;39616;48.872;9.390;2023-03-03T15:06:53;98592.94;;;8.81;56.28
53719;BME280;39616;48.872;9.390;2023-03-03T15:09:48;98589.94;;;8.82;55.74
53719;BME280;39616;48.872;9.390;2023-03-03T15:17:39;98586.19;;;8.78;55.87
53719;BME280;39616;48.872;9.390;2023-03-03T15:20:30;98587.28;;;8.72;55.98
53719;BME280;39616;48.872;9.390;2023-03-03T15:31:48;98581.38;;;8.65;56.60
53719;BME280;39616;48.872;9.390;2023-03-03T15:34:57;98584.34;;;8.63;56.67
53719;BME280;39616;48.872;9.390;2023-03-03T15:37:46;98578.94;;;8.63;57.40
53719;BME280;39616;48.872;9.390;2023-03-03T15:40:40;98582.50;;;8.59;57.83
53719;BME280;39616;48.872;9.390;2023-03-03T15:43:29;98577.09;;;8.59;57.29
53719;BME280;39616;48.872;9.390;2023-03-03T15:46:18;98574.66;;;8.57;57.35
53719;BME280;39616;48.872;9.390;2023-03-03T15:52:02;98579.25;;;8.57;58.00
53719;BME280;39616;48.872;9.390;2023-03-03T16:01:16;98582.28;;;8.45;57.58
53719;BME280;39616;48.872;9.390;2023-03-03T16:04:00;98581.22;;;8.41;58.09
53719;BME280;39616;48.872;9.390;2023-03-03T16:15:23;98594.22;;;8.13;60.17
53719;BME280;39616;48.872;9.390;2023-03-03T16:18:18;98596.69;;;7.99;60.74
53719;BME280;39616;48.872;9.390;2023-03-03T16:26:16;98606.44;;;7.75;61.12
53719;BME280;39616;48.872;9.390;2023-03-03T16:31:53;98611.81;;;7.75;61.09
53719;BME280;39616;48.872;9.390;2023-03-03T16:37:35;98618.28;;;7.54;62.58
53719;BME280;39616;48.872;9.390;2023-03-03T16:43:30;98624.22;;;7.35;62.65
53719;BME280;39616;48.872;9.390;2023-03-03T16:54:56;98637.09;;;7.02;64.05
53719;BME280;39616;48.872;9.390;2023-03-03T17:00:29;98647.25;;;6.75;65.15
53719;BME280;39616;48.872;9.390;2023-03-03T17:06:21;98651.47;;;6.56;65.93